Time;durP1;ratioP1;P1;durP2;ratioP2;P2;SDS_P1;SDS_P2;PMS_P1;PMS_P2;Temp;Humidity;BMP_temperature;BMP_pressure;BME280_temperature;BME280_humidity;BME280_pressure;Samples;Min_cycle;Max_cycle;Signal;HPM_P1;HPM_P2
2023/10/08 00:01:42;;;;;;;12.00;3.80;;;;;;;17.81;42.20;100581.61;107632;1254;109692;-62
2023/10/08 00:04:11;;;;;;;9.00;3.50;;;;;;;17.85;42.09;100576.59;107550;1251;108827;-60
2023/10/08 00:06:39;;;;;;;4.90;2.90;;;;;;;17.90;42.10;100572.73;107606;1251;99176;-61
2023/10/08 00:09:08;;;;;;;11.80;3.20;;;;;;;17.94;41.91;100570.23;107466;1253;99071;-60
2023/10/08 00:11:41;;;;;;;8.80;3.30;;;;;;;17.97;41.84;100568.38;107600;1253;112419;-60
2023/10/08 00:14:10;;;;;;;9.20;3.10;;;;;;;18.01;41.85;100565.27;107595;1254;109328;-61
2023/10/08 00:16:39;;;;;;;8.70;3.30;;;;;;;18.03;41.90;100558.16;107606;1252;107957;-61
2023/10/08 00:19:08;;;;;;;9.20;3.60;;;;;;;18.04;41.96;100557.04;107600;1252;99285;-61
2023/10/08 00:21:38;;;;;;;6.70;3.40;;;;;;;18.07;41.84;100554.55;107597;1251;99166;-61
2023/10/08 00:24:07;;;;;;;6.60;3.20;;;;;;;18.10;41.79;100559.98;107622;1252;113593;-60
2023/10/08 00:26:39;;;;;;;11.50;3.60;;;;;;;18.11;41.64;100551.20;107667;1253;107777;-63
2023/10/08 00:29:21;;;;;;;14.40;3.60;;;;;;;18.14;41.63;100548.73;107591;1252;107102;-61
2023/10/08 00:31:50;;;;;;;10.90;3.00;;;;;;;18.17;41.49;100548.21;107663;1251;99215;-62
2023/10/08 00:34:20;;;;;;;9.10;2.90;;;;;;;18.20;41.64;100548.04;107547;1254;99067;-63
2023/10/08 00:36:49;;;;;;;10.60;3.30;;;;;;;18.21;41.66;100550.19;107633;1253;111838;-60
2023/10/08 00:39:26;;;;;;;4.80;2.90;;;;;;;18.23;41.49;100550.17;107582;1254;109433;-61
2023/10/08 00:41:58;;;;;;;7.20;3.20;;;;;;;18.25;41.45;100548.88;107532;1251;106211;-60
2023/10/08 00:44:35;;;;;;;9.60;3.50;;;;;;;18.26;41.59;100544.14;107564;1251;99140;-61
2023/10/08 00:47:06;;;;;;;5.90;3.10;;;;;;;18.28;41.61;100549.19;107606;1252;99067;-61
2023/10/08 00:57:35;;;;;;;7.80;3.10;;;;;;;18.34;41.43;100546.27;107594;1253;99188;-60
2023/10/08 01:00:17;;;;;;;7.60;3.30;;;;;;;18.34;41.48;100541.36;107618;1251;99268;-60
2023/10/08 01:02:46;;;;;;;7.50;3.00;;;;;;;18.36;41.35;100538.74;107594;1253;113140;-62
2023/10/08 01:05:24;;;;;;;5.80;3.20;;;;;;;18.37;41.44;100530.59;107508;1253;109617;-61
2023/10/08 01:07:55;;;;;;;5.50;3.00;;;;;;;18.38;41.36;100529.08;107613;1255;107486;-61
2023/10/08 01:10:24;;;;;;;5.60;2.80;;;;;;;18.39;41.34;100521.68;107567;1254;99092;-61
2023/10/08 01:15:28;;;;;;;16.90;3.20;;;;;;;18.41;41.26;100514.30;107537;1251;113187;-60
2023/10/08 01:18:00;;;;;;;13.00;3.90;;;;;;;18.42;41.19;100513.63;107567;1254;108986;-59
2023/10/08 01:20:44;;;;;;;8.40;3.10;;;;;;;18.43;41.19;100505.13;107565;1254;106417;-62
2023/10/08 01:23:13;;;;;;;;;;;;;;;18.44;41.28;100496.54;107553;1251;99871;-61
2023/10/08 01:25:50;;;;;;;9.60;3.30;;;;;;;18.44;41.34;100491.23;107623;1252;99150;-61
2023/10/08 01:28:33;;;;;;;10.30;2.90;;;;;;;18.45;41.24;100486.80;107591;1253;113107;-61
2023/10/08 01:31:03;;;;;;;9.80;3.50;;;;;;;18.46;41.22;100477.38;107619;1254;109335;-61
2023/10/08 01:33:38;;;;;;;10.70;3.60;;;;;;;18.47;41.24;100477.63;107548;1255;106322;-62
2023/10/08 01:36:12;;;;;;;8.10;3.50;;;;;;;18.46;41.37;100478.05;107637;1254;99180;-60
2023/10/08 01:38:41;;;;;;;10.10;3.90;;;;;;;18.47;41.46;100479.06;107611;1251;99781;-61
2023/10/08 01:41:18;;;;;;;17.20;3.50;;;;;;;18.47;41.56;100487.61;107550;1254;112243;-60
2023/10/08 01:43:52;;;;;;;9.40;3.70;;;;;;;18.46;41.44;100489.48;107553;1254;108742;-60
2023/10/08 01:46:22;;;;;;;;;;;;;;;18.47;41.60;100489.08;107586;1254;107526;-60
2023/10/08 01:48:59;;;;;;;9.50;3.10;;;;;;;18.47;41.45;100480.86;107571;1255;99297;-62
2023/10/08 01:51:37;;;;;;;13.80;3.70;;;;;;;18.49;41.46;100485.78;107558;1253;99197;-60
2023/10/08 01:54:11;;;;;;;5.50;3.60;;;;;;;18.50;41.43;100483.86;107618;1254;113294;-62
2023/10/08 01:56:41;;;;;;;16.00;3.30;;;;;;;18.51;41.32;100483.05;107556;1253;109063;-61
2023/10/08 01:59:13;;;;;;;7.20;3.30;;;;;;;18.50;41.37;100482.36;107628;1253;107278;-60
2023/10/08 02:01:45;;;;;;;9.50;4.10;;;;;;;18.50;41.55;100488.22;107593;1252;99197;-61
2023/10/08 02:04:16;;;;;;;12.10;3.30;;;;;;;18.48;41.63;100484.64;107649;1252;99163;-60
2023/10/08 02:06:46;;;;;;;17.40;3.60;;;;;;;18.47;41.54;100484.52;107612;1254;113824;-61
2023/10/08 02:09:15;;;;;;;9.00;3.50;;;;;;;18.47;41.69;100479.60;107653;1253;109492;-60
2023/10/08 02:11:46;;;;;;;10.90;3.30;;;;;;;18.45;42.14;100476.91;107576;1255;107155;-60
2023/10/08 02:14:15;;;;;;;7.80;3.60;;;;;;;18.45;41.92;100471.13;107590;1253;99178;-61
2023/10/08 02:16:44;;;;;;;10.80;3.60;;;;;;;18.45;41.86;100470.00;107582;1254;99259;-61
2023/10/08 02:19:16;;;;;;;7.10;3.70;;;;;;;18.45;42.03;100464.25;107554;1254;114088;-60
2023/10/08 02:21:46;;;;;;;6.60;3.40;;;;;;;18.42;42.75;100463.73;107586;1254;107755;-61
2023/10/08 02:24:15;;;;;;;8.20;3.60;;;;;;;18.37;43.14;100453.24;107594;1253;107766;-62
2023/10/08 02:26:43;;;;;;;13.30;3.60;;;;;;;18.31;43.10;100450.64;107567;1254;99188;-60
2023/10/08 02:29:14;;;;;;;13.50;4.00;;;;;;;18.26;43.85;100447.49;107567;1253;99826;-61
2023/10/08 02:31:43;;;;;;;8.10;3.50;;;;;;;18.20;44.58;100448.40;107546;1252;113467;-60
2023/10/08 02:34:12;;;;;;;8.60;3.10;;;;;;;18.13;44.99;100443.42;107586;1253;109680;-61
2023/10/08 02:36:41;;;;;;;11.90;3.20;;;;;;;18.06;45.56;100443.40;107546;1253;107965;-60
2023/10/08 02:39:17;;;;;;;7.80;3.40;;;;;;;17.98;45.26;100442.35;107558;1252;99263;-60
2023/10/08 02:41:46;;;;;;;11.00;3.60;;;;;;;17.92;45.85;100447.11;107627;1254;99708;-61
2023/10/08 02:44:16;;;;;;;14.40;3.50;;;;;;;17.85;46.17;100447.30;107593;1254;113732;-61
2023/10/08 02:46:49;;;;;;;14.20;3.60;;;;;;;17.79;45.62;100440.88;107601;1253;109730;-62
2023/10/08 02:49:22;;;;;;;7.90;3.30;;;;;;;17.79;44.95;100434.21;107634;1254;106896;-62
2023/10/08 02:51:54;;;;;;;9.10;3.20;;;;;;;17.80;44.78;100430.91;107564;1253;99285;-60
2023/10/08 02:54:31;;;;;;;10.30;3.60;;;;;;;17.83;45.11;100430.27;107590;1253;99067;-61
2023/10/08 02:57:03;;;;;;;13.80;3.40;;;;;;;17.82;45.94;100429.10;107553;1252;112085;-60
2023/10/08 02:59:44;;;;;;;17.40;3.90;;;;;;;17.79;46.37;100424.74;107570;1254;108659;-61
2023/10/08 03:02:18;;;;;;;15.40;4.00;;;;;;;17.75;46.82;100423.32;107554;1254;108050;-61
2023/10/08 03:04:52;;;;;;;7.20;3.50;;;;;;;17.69;46.88;100421.50;107660;1254;99709;-60
2023/10/08 03:07:31;;;;;;;6.40;3.30;;;;;;;17.62;47.34;100415.77;107576;1254;99577;-66
2023/10/08 03:10:06;;;;;;;9.70;3.50;;;;;;;17.57;46.79;100413.33;107568;1253;112094;-62
2023/10/08 03:12:34;;;;;;;9.80;3.50;;;;;;;17.58;46.27;100415.08;107594;1254;109581;-61
2023/10/08 03:17:51;;;;;;;9.10;3.90;;;;;;;17.67;45.26;100412.40;107595;1255;99201;-60
2023/10/08 03:20:41;;;;;;;8.00;3.70;;;;;;;17.74;44.99;100413.61;107585;1251;99730;-61
2023/10/08 03:26:10;;;;;;;10.60;3.50;;;;;;;17.82;44.65;100416.88;107675;1253;108683;-61
2023/10/08 03:28:41;;;;;;;15.60;4.10;;;;;;;17.87;44.33;100414.91;107553;1253;108602;-60
2023/10/08 03:31:17;;;;;;;7.30;3.70;;;;;;;17.90;44.34;100411.84;107577;1254;99210;-63
2023/10/08 03:33:51;;;;;;;11.20;3.80;;;;;;;17.92;44.21;100407.90;107628;1253;99704;-60
2023/10/08 03:36:21;;;;;;;16.60;3.50;;;;;;;17.94;44.26;100412.73;107611;1254;113713;-60
2023/10/08 03:38:52;;;;;;;6.90;3.60;;;;;;;17.96;44.32;100412.55;107515;1252;109654;-62
2023/10/08 03:41:29;;;;;;;12.70;3.90;;;;;;;17.97;44.35;100409.86;107445;1254;108758;-62
2023/10/08 03:44:01;;;;;;;13.20;3.90;;;;;;;18.00;44.40;100410.77;107550;1253;99202;-61
2023/10/08 03:46:31;;;;;;;18.00;3.50;;;;;;;18.02;44.48;100404.88;107610;1254;99269;-60
2023/10/08 03:49:04;;;;;;;17.50;4.30;;;;;;;18.04;44.55;100405.15;107650;1254;113488;-61
2023/10/08 03:51:39;;;;;;;12.90;4.00;;;;;;;18.07;44.63;100405.55;107526;1254;109649;-61
2023/10/08 03:54:18;;;;;;;11.70;3.80;;;;;;;18.09;44.72;100404.11;107620;1253;109902;-61
2023/10/08 03:56:48;;;;;;;13.00;3.80;;;;;;;18.11;44.73;100397.35;107579;1253;99192;-62
2023/10/08 03:59:29;;;;;;;8.90;4.20;;;;;;;18.12;44.67;100391.23;107542;1253;99060;-60
2023/10/08 04:02:39;;;;;;;7.90;3.90;;;;;;;18.13;44.63;100389.02;107513;1253;113341;-60
2023/10/08 04:05:17;;;;;;;;;;;;;;;18.14;44.88;100389.50;107652;1254;110728;-61
2023/10/08 04:13:10;;;;;;;9.10;4.30;;;;;;;18.18;44.69;100385.27;107648;1254;99153;-61
2023/10/08 04:15:41;;;;;;;10.50;4.30;;;;;;;18.19;44.92;100381.70;107546;1254;113185;-62
2023/10/08 04:18:15;;;;;;;13.90;4.30;;;;;;;18.19;45.04;100383.05;107604;1255;110002;-60
2023/10/08 04:21:00;;;;;;;9.30;3.90;;;;;;;18.19;45.08;100381.33;107588;1253;108692;-60
2023/10/08 04:23:29;;;;;;;12.70;4.40;;;;;;;18.19;44.95;100385.11;107607;1254;99160;-60
2023/10/08 04:25:58;;;;;;;10.90;4.00;;;;;;;18.19;45.09;100382.63;107568;1253;99079;-60
2023/10/08 04:28:34;;;;;;;14.80;4.00;;;;;;;18.20;44.85;100383.77;107609;1253;112842;-63
2023/10/08 04:31:14;;;;;;;10.10;4.30;;;;;;;18.22;44.90;100384.29;107524;1254;110172;-63
2023/10/08 04:33:44;;;;;;;7.60;3.90;;;;;;;18.22;45.08;100388.06;107615;1254;108137;-61
2023/10/08 04:36:18;;;;;;;8.90;4.00;;;;;;;18.24;45.02;100393.64;107640;1255;99291;-61
2023/10/08 04:38:54;;;;;;;10.50;4.50;;;;;;;18.25;44.88;100393.48;107601;1254;99185;-61
2023/10/08 04:41:28;;;;;;;9.00;4.00;;;;;;;18.27;44.94;100400.27;107617;1253;112480;-61
2023/10/08 04:43:56;;;;;;;14.50;3.90;;;;;;;18.31;44.84;100397.56;107552;1253;109941;-61
2023/10/08 04:49:27;;;;;;;13.60;4.80;;;;;;;18.37;44.98;100403.48;107524;1253;99390;-61
2023/10/08 04:52:09;;;;;;;11.10;4.10;;;;;;;18.40;44.85;100398.23;107557;1254;99214;-60
2023/10/08 04:54:40;;;;;;;8.70;3.70;;;;;;;18.45;44.62;100385.48;107535;1254;113532;-61
2023/10/08 04:57:15;;;;;;;9.20;3.70;;;;;;;18.52;44.22;100384.61;107533;1254;109467;-61
2023/10/08 04:59:46;;;;;;;9.10;3.80;;;;;;;18.63;43.76;100384.23;107536;1254;108281;-60
2023/10/08 05:02:34;;;;;;;7.80;3.70;;;;;;;18.74;43.46;100377.52;107579;1254;99179;-61
2023/10/08 05:15:41;;;;;;;15.70;4.70;;;;;;;19.07;42.57;100374.92;107513;1254;99716;-61
2023/10/08 05:20:59;;;;;;;6.00;3.30;;;;;;;19.11;42.52;100378.70;107358;1254;112659;-61
2023/10/08 05:28:25;;;;;;;10.20;4.10;;;;;;;19.17;42.37;100375.64;107559;1254;99179;-61
2023/10/08 05:41:55;;;;;;;14.20;3.40;;;;;;;19.33;41.92;100371.85;107595;1254;99183;-60
2023/10/08 05:44:26;;;;;;;14.50;4.70;;;;;;;19.38;41.85;100364.85;107597;1254;99070;-62
2023/10/08 05:49:38;;;;;;;12.00;3.30;;;;;;;19.49;41.58;100351.84;107621;1254;108816;-61
2023/10/08 05:54:57;;;;;;;8.70;3.80;;;;;;;19.60;41.38;100346.37;107545;1254;99873;-61
2023/10/08 05:57:38;;;;;;;16.40;4.40;;;;;;;19.64;41.29;100337.42;107625;1253;99220;-61
2023/10/08 06:13:09;;;;;;;13.40;3.70;;;;;;;19.63;41.33;100337.27;107604;1254;113508;-61
2023/10/08 06:18:20;;;;;;;6.60;3.50;;;;;;;19.64;41.31;100335.92;107506;1254;105883;-62
2023/10/08 06:20:54;;;;;;;9.10;3.20;;;;;;;19.67;41.32;100338.54;107566;1253;99173;-60
2023/10/08 06:23:23;;;;;;;10.60;3.50;;;;;;;19.69;41.16;100341.68;107524;1254;99275;-60
2023/10/08 06:26:42;;;;;;;12.80;3.70;;;;;;;19.76;41.11;100346.48;107567;1253;113236;-60
2023/10/08 06:28:45;;;;;;;5.60;3.30;;;;;;;19.83;41.01;100342.48;107556;1255;109903;-61
2023/10/08 06:31:16;;;;;;;10.50;4.50;;;;;;;19.90;40.94;100341.58;107581;1254;107072;-61
2023/10/08 06:33:45;;;;;;;10.40;3.30;;;;;;;19.96;40.65;100344.86;107536;1253;99214;-61
2023/10/08 06:36:15;;;;;;;12.20;3.40;;;;;;;20.01;40.51;100347.56;107584;1254;99061;-61
2023/10/08 06:38:48;;;;;;;11.40;3.40;;;;;;;20.09;40.41;100357.34;107592;1254;113867;-59
2023/10/08 06:41:24;;;;;;;5.60;2.80;;;;;;;20.13;40.39;100360.45;107569;1254;109254;-61
2023/10/08 06:44:16;;;;;;;9.70;3.70;;;;;;;20.13;40.30;100364.70;107571;1254;108371;-62
2023/10/08 06:46:45;;;;;;;12.50;3.40;;;;;;;20.10;40.14;100362.25;107522;1254;99301;-60
2023/10/08 06:49:15;;;;;;;9.00;3.20;;;;;;;20.08;40.39;100361.04;107539;1251;99064;-62
2023/10/08 06:51:44;;;;;;;14.70;3.60;;;;;;;20.08;40.26;100363.14;107709;1254;112853;-61
2023/10/08 06:54:17;;;;;;;12.40;3.50;;;;;;;20.07;40.44;100368.10;107574;1254;109834;-62
2023/10/08 06:56:46;;;;;;;15.00;4.10;;;;;;;20.08;40.14;100378.67;107608;1254;107760;-60
2023/10/08 06:59:18;;;;;;;6.90;3.10;;;;;;;20.11;40.12;100371.67;107525;1255;99278;-60
2023/10/08 07:01:47;;;;;;;14.80;2.70;;;;;;;20.13;40.32;100378.52;107576;1254;99767;-61
2023/10/08 07:04:15;;;;;;;11.30;3.00;;;;;;;20.14;40.20;100383.77;107510;1254;114041;-61
2023/10/08 07:06:46;;;;;;;15.30;3.40;;;;;;;20.14;40.34;100388.34;107545;1254;109827;-61
2023/10/08 07:09:29;;;;;;;5.50;3.10;;;;;;;20.19;40.34;100393.59;107530;1259;108635;-61
2023/10/08 07:12:05;;;;;;;7.90;4.00;;;;;;;20.26;40.34;100407.98;107537;1254;99317;-59
2023/10/08 07:14:33;;;;;;;36.70;3.40;;;;;;;20.40;40.87;100443.66;107571;1256;99071;-60
2023/10/08 07:17:08;;;;;;;39.40;3.00;;;;;;;20.41;41.80;100451.27;107602;1255;113468;-60
2023/10/08 07:19:40;;;;;;;28.10;3.10;;;;;;;20.39;42.56;100453.38;107562;1254;109356;-61
2023/10/08 07:22:21;;;;;;;58.60;4.20;;;;;;;20.19;43.21;100464.95;107513;1254;108553;-61
2023/10/08 07:24:51;;;;;;;31.10;3.00;;;;;;;19.88;43.74;100492.57;107562;1255;99646;-61
2023/10/08 07:27:21;;;;;;;36.70;2.60;;;;;;;19.66;44.43;100497.67;107574;1254;99175;-60
2023/10/08 07:29:55;;;;;;;21.50;1.60;;;;;;;19.40;45.01;100493.52;107550;1255;112552;-61
2023/10/08 07:32:25;;;;;;;13.50;1.50;;;;;;;19.16;45.50;100512.71;107527;1254;108613;-60
2023/10/08 07:35:04;;;;;;;8.40;1.40;;;;;;;19.02;46.02;100521.30;107638;1255;107602;-62
2023/10/08 07:37:33;;;;;;;12.00;1.50;;;;;;;18.82;46.46;100531.88;107528;1254;99076;-61
2023/10/08 07:40:08;;;;;;;15.90;0.90;;;;;;;18.65;46.86;100541.28;107585;1256;99183;-61
2023/10/08 07:42:36;;;;;;;14.00;1.10;;;;;;;18.53;47.21;100546.08;107558;1254;112568;-60
2023/10/08 07:45:06;;;;;;;10.30;1.30;;;;;;;18.39;47.42;100543.85;107594;1255;109702;-62
2023/10/08 07:47:34;;;;;;;9.90;1.10;;;;;;;18.22;47.84;100545.55;107593;1254;107965;-61
2023/10/08 07:50:11;;;;;;;17.70;1.50;;;;;;;18.05;48.03;100552.21;107542;1254;99269;-60
2023/10/08 07:52:44;;;;;;;4.80;0.60;;;;;;;17.96;48.13;100554.77;107640;1254;99319;-61
2023/10/08 07:55:17;;;;;;;6.10;1.50;;;;;;;17.96;48.07;100554.45;107548;1255;113177;-61
2023/10/08 07:57:47;;;;;;;9.20;1.20;;;;;;;17.89;47.97;100558.86;107545;1256;109643;-61
2023/10/08 08:00:22;;;;;;;5.20;0.70;;;;;;;17.82;48.25;100558.81;107533;1255;107739;-59
2023/10/08 08:02:54;;;;;;;6.30;0.50;;;;;;;17.66;48.25;100567.51;107551;1255;99205;-60
2023/10/08 08:05:25;;;;;;;1.50;0.40;;;;;;;17.42;48.91;100582.19;107609;1254;99214;-60
2023/10/08 08:07:56;;;;;;;12.30;1.10;;;;;;;17.24;49.33;100581.08;107596;1256;112070;-60
2023/10/08 08:10:25;;;;;;;6.20;0.30;;;;;;;17.08;49.84;100585.30;107628;1254;109959;-62
2023/10/08 08:12:56;;;;;;;4.60;0.40;;;;;;;16.94;49.99;100586.05;107546;1254;107692;-60
2023/10/08 08:15:27;;;;;;;7.40;0.50;;;;;;;16.72;50.50;100598.05;107542;1255;99230;-62
2023/10/08 08:17:55;;;;;;;0.90;0.30;;;;;;;16.54;50.98;100606.84;107560;1254;99120;-60
2023/10/08 08:20:34;;;;;;;6.40;0.50;;;;;;;16.41;51.58;100612.27;107532;1254;113503;-60
2023/10/08 08:23:07;;;;;;;1.70;0.40;;;;;;;16.24;52.13;100620.44;107543;1254;109427;-60
2023/10/08 08:25:54;;;;;;;3.00;0.60;;;;;;;16.08;52.86;100622.83;107561;1251;106814;-59
2023/10/08 08:28:24;;;;;;;2.60;0.40;;;;;;;15.92;54.27;100612.60;107542;1256;99179;-60
2023/10/08 08:30:53;;;;;;;3.10;0.60;;;;;;;15.83;55.63;100623.00;107563;1253;99720;-59
2023/10/08 08:33:22;;;;;;;0.40;0.40;;;;;;;15.74;56.30;100645.80;107602;1254;113114;-59
2023/10/08 08:36:01;;;;;;;1.20;0.40;;;;;;;15.57;56.95;100672.59;107559;1254;108036;-59
2023/10/08 08:38:32;;;;;;;4.30;0.40;;;;;;;15.37;57.17;100691.05;107592;1253;108213;-61
2023/10/08 08:41:07;;;;;;;3.20;0.50;;;;;;;15.28;57.75;100709.58;107615;1256;99184;-60
2023/10/08 08:43:36;;;;;;;1.20;0.30;;;;;;;15.21;58.09;100701.31;107619;1255;99310;-60
2023/10/08 08:46:06;;;;;;;2.20;0.30;;;;;;;15.12;58.26;100699.92;107579;1251;112437;-60
2023/10/08 08:48:38;;;;;;;6.00;0.40;;;;;;;15.07;59.02;100706.65;107601;1254;110202;-60
2023/10/08 08:51:09;;;;;;;8.70;1.50;;;;;;;15.00;59.96;100716.15;107533;1255;107005;-60
2023/10/08 08:53:38;;;;;;;0.40;0.30;;;;;;;14.93;59.62;100718.00;107558;1257;99199;-61
2023/10/08 08:56:09;;;;;;;2.50;0.40;;;;;;;14.95;61.44;100728.47;107584;1253;99154;-61
2023/10/08 08:58:38;;;;;;;0.50;0.50;;;;;;;14.86;62.20;100739.73;107609;1254;113561;-60
2023/10/08 09:01:12;;;;;;;3.70;0.60;;;;;;;14.77;62.34;100756.45;107611;1255;109095;-62
2023/10/08 09:03:41;;;;;;;4.10;0.50;;;;;;;14.68;62.21;100767.95;107582;1257;107425;-60
2023/10/08 09:06:11;;;;;;;1.80;0.60;;;;;;;14.62;62.24;100781.23;107510;1256;99067;-60
2023/10/08 09:08:45;;;;;;;1.80;0.70;;;;;;;14.62;62.92;100795.63;107634;1253;99067;-60
2023/10/08 09:11:17;;;;;;;4.30;0.70;;;;;;;14.58;65.33;100800.21;107578;1256;113813;-60
2023/10/08 09:13:45;;;;;;;2.60;0.50;;;;;;;14.51;65.10;100817.16;107583;1254;109643;-60
2023/10/08 09:16:15;;;;;;;0.40;0.30;;;;;;;14.43;67.94;100822.05;107571;1255;107442;-60
2023/10/08 09:18:46;;;;;;;5.10;1.00;;;;;;;14.27;68.41;100837.89;107577;1254;99183;-60
2023/10/08 09:21:19;;;;;;;1.30;0.30;;;;;;;14.16;68.33;100838.53;107532;1254;99638;-61
2023/10/08 09:23:54;;;;;;;0.60;0.20;;;;;;;14.10;68.92;100844.00;107529;1254;112421;-61
2023/10/08 09:26:24;;;;;;;1.10;0.30;;;;;;;14.05;69.62;100856.03;107615;1254;109812;-59
2023/10/08 09:28:54;;;;;;;0.40;0.40;;;;;;;13.95;69.34;100864.29;107538;1253;108372;-60
2023/10/08 09:31:23;;;;;;;1.50;0.60;;;;;;;13.90;70.09;100868.02;107555;1257;99858;-60
2023/10/08 09:33:55;;;;;;;1.50;0.60;;;;;;;13.82;69.85;100880.17;107601;1256;99695;-60
2023/10/08 09:36:34;;;;;;;0.50;0.50;;;;;;;13.75;70.06;100890.20;107595;1257;113426;-61
2023/10/08 09:39:06;;;;;;;1.70;0.80;;;;;;;13.65;70.42;100893.39;107582;1257;109058;-59
2023/10/08 09:41:38;;;;;;;6.80;3.00;;;;;;;13.63;71.09;100895.77;107514;1254;106964;-60
2023/10/08 09:44:10;;;;;;;1.50;0.80;;;;;;;13.63;71.75;100895.06;107592;1254;100045;-61
2023/10/08 09:46:42;;;;;;;;;;;;;;;13.64;71.59;100899.97;107625;1255;99189;-61
2023/10/08 09:49:13;;;;;;;2.70;1.10;;;;;;;13.62;70.96;100898.04;107591;1257;112397;-60
2023/10/08 09:51:43;;;;;;;2.60;1.20;;;;;;;13.55;70.82;100895.29;107584;1254;108283;-61
2023/10/08 09:54:20;;;;;;;3.20;0.90;;;;;;;13.36;72.13;100909.20;107536;1257;108602;-60
2023/10/08 09:56:48;;;;;;;3.70;0.90;;;;;;;13.15;72.71;100929.06;107480;1254;99220;-60
2023/10/08 09:59:19;;;;;;;4.70;1.20;;;;;;;12.97;72.95;100944.96;107585;1254;99912;-61
2023/10/08 10:01:48;;;;;;;3.50;0.70;;;;;;;12.71;72.64;100970.70;107606;1254;113551;-61
2023/10/08 10:04:31;;;;;;;5.50;1.40;;;;;;;12.50;73.55;100986.83;107618;1255;110132;-59
2023/10/08 10:07:16;;;;;;;3.00;1.40;;;;;;;12.22;73.78;100991.89;107554;1254;108933;-60
2023/10/08 10:09:49;;;;;;;4.10;1.00;;;;;;;11.99;74.77;100996.36;107044;1252;672073;-60
2023/10/08 10:12:30;;;;;;;0.90;0.40;;;;;;;11.83;74.86;100989.83;107571;1257;99105;-60
2023/10/08 10:15:00;;;;;;;3.20;1.30;;;;;;;11.65;74.32;100990.89;107627;1255;113235;-59
2023/10/08 10:17:29;;;;;;;1.60;1.00;;;;;;;11.56;74.40;100994.08;107574;1251;109286;-60
2023/10/08 10:20:13;;;;;;;2.30;0.90;;;;;;;11.43;74.67;100997.87;107609;1251;108856;-61
2023/10/08 10:22:45;;;;;;;3.10;0.90;;;;;;;11.30;75.29;101001.52;107619;1251;99192;-62
2023/10/08 10:25:17;;;;;;;3.20;1.10;;;;;;;11.24;75.47;101010.68;107579;1254;99224;-61
2023/10/08 10:27:55;;;;;;;4.00;1.10;;;;;;;11.18;74.70;101019.08;107626;1257;113414;-60
2023/10/08 10:30:23;;;;;;;1.60;1.00;;;;;;;11.13;74.58;101018.52;107490;1256;108274;-61
2023/10/08 10:32:52;;;;;;;2.70;1.00;;;;;;;11.07;74.87;101021.88;107500;1254;108368;-61
2023/10/08 10:35:23;;;;;;;4.50;1.10;;;;;;;11.00;74.87;101023.34;107603;1251;99656;-61
2023/10/08 10:37:53;;;;;;;2.20;0.80;;;;;;;10.94;74.42;101029.27;107629;1251;99756;-61
2023/10/08 10:40:39;;;;;;;4.40;1.00;;;;;;;10.88;74.49;101037.63;107513;1254;112354;-61
2023/10/08 10:43:15;;;;;;;3.40;1.00;;;;;;;10.83;74.97;101051.89;107615;1256;109874;-61
2023/10/08 10:45:46;;;;;;;4.80;0.90;;;;;;;10.83;75.09;101050.99;107568;1251;108704;-60
2023/10/08 10:56:30;;;;;;;4.50;1.30;;;;;;;10.98;74.96;101048.15;107593;1254;108876;-60
2023/10/08 10:59:16;;;;;;;7.40;2.20;;;;;;;11.06;74.51;101049.00;107574;1254;108352;-60
2023/10/08 11:02:00;;;;;;;8.80;2.10;;;;;;;11.17;74.10;101054.94;107508;1255;99175;-61
2023/10/08 11:04:47;;;;;;;2.60;1.40;;;;;;;11.26;73.88;101048.36;107517;1254;99737;-61
2023/10/08 11:07:23;;;;;;;4.40;1.40;;;;;;;11.36;73.54;101054.71;107608;1256;112662;-61
2023/10/08 11:09:52;;;;;;;4.00;1.00;;;;;;;11.43;73.27;101058.22;107623;1254;109068;-61
2023/10/08 11:12:32;;;;;;;3.70;1.40;;;;;;;11.52;73.21;101058.33;107552;1254;108006;-60
2023/10/08 11:15:05;;;;;;;3.70;1.60;;;;;;;11.66;72.97;101056.59;107530;1255;99221;-60
2023/10/08 11:17:33;;;;;;;6.60;1.30;;;;;;;11.76;72.77;101041.34;107574;1257;99083;-61
2023/10/08 11:20:07;;;;;;;3.40;1.60;;;;;;;11.81;72.70;101039.67;107576;1255;114220;-60
2023/10/08 11:22:44;;;;;;;2.60;1.20;;;;;;;11.75;72.20;101039.48;107625;1254;109012;-61
2023/10/08 11:25:35;;;;;;;2.80;1.20;;;;;;;11.68;72.12;101040.58;107613;1253;106427;-62
2023/10/08 11:28:10;;;;;;;2.70;1.20;;;;;;;11.73;72.45;101042.15;107590;1256;99256;-60
2023/10/08 11:30:42;;;;;;;4.30;1.30;;;;;;;11.80;72.49;101037.23;107595;1251;99185;-60
2023/10/08 11:33:15;;;;;;;2.20;1.40;;;;;;;11.87;72.56;101035.98;107639;1254;112982;-61
2023/10/08 11:35:58;;;;;;;7.90;1.80;;;;;;;11.95;72.44;101028.85;107607;1251;108726;-60
2023/10/08 11:38:27;;;;;;;5.40;2.50;;;;;;;12.00;72.19;101026.64;107563;1254;106674;-60
2023/10/08 11:40:58;;;;;;;4.90;2.80;;;;;;;11.93;71.60;101024.92;107557;1253;99197;-61
2023/10/08 11:43:27;;;;;;;11.50;3.20;;;;;;;11.87;71.48;101023.30;107587;1254;99166;-60
2023/10/08 11:45:56;;;;;;;3.50;2.00;;;;;;;11.79;71.28;101017.34;107451;1254;113204;-60
2023/10/08 11:48:28;;;;;;;10.00;2.90;;;;;;;11.54;71.31;101019.54;107603;1251;109874;-60
2023/10/08 11:51:01;;;;;;;5.80;1.90;;;;;;;11.49;72.00;101028.45;107596;1254;108682;-60
2023/10/08 11:53:31;;;;;;;7.40;2.00;;;;;;;11.56;72.35;101033.20;107598;1254;99171;-60
2023/10/08 11:55:59;;;;;;;5.40;2.40;;;;;;;11.69;72.66;101033.13;107543;1257;99176;-61
2023/10/08 11:58:37;;;;;;;6.00;1.80;;;;;;;11.82;72.50;101036.66;107579;1254;113293;-61
2023/10/08 12:01:06;;;;;;;4.20;1.60;;;;;;;11.92;72.67;101044.92;107629;1254;110050;-61
2023/10/08 12:03:34;;;;;;;4.70;1.90;;;;;;;11.94;72.05;101047.08;107613;1254;106962;-60
2023/10/08 12:06:05;;;;;;;4.90;1.70;;;;;;;11.96;71.65;101045.15;107491;1253;99185;-60
2023/10/08 12:08:39;;;;;;;5.50;1.90;;;;;;;11.99;71.37;101040.42;107516;1254;99868;-61
2023/10/08 12:11:11;;;;;;;4.00;2.00;;;;;;;12.01;71.26;101040.57;107504;1254;112259;-60
2023/10/08 12:13:44;;;;;;;5.60;2.30;;;;;;;12.03;71.07;101047.91;107623;1254;108684;-61
2023/10/08 12:16:22;;;;;;;6.10;2.50;;;;;;;12.05;70.93;101057.89;107580;1254;108798;-60
2023/10/08 12:18:58;;;;;;;4.30;2.30;;;;;;;12.00;70.52;101061.31;107535;1254;99169;-62
2023/10/08 12:21:29;;;;;;;7.30;1.60;;;;;;;11.93;70.30;101051.34;107557;1251;99105;-61
2023/10/08 12:23:58;;;;;;;2.60;1.00;;;;;;;11.86;70.14;101052.63;107606;1254;112428;-61
2023/10/08 12:26:27;;;;;;;3.10;1.40;;;;;;;11.82;70.03;101067.04;107609;1254;110096;-61
2023/10/08 12:28:55;;;;;;;6.70;1.40;;;;;;;11.77;70.11;101069.05;107548;1251;108396;-60
2023/10/08 12:31:24;;;;;;;2.50;1.40;;;;;;;11.68;70.55;101075.13;107529;1253;99343;-60
2023/10/08 12:34:00;;;;;;;2.70;1.30;;;;;;;11.60;70.92;101083.91;107532;1252;99283;-61
2023/10/08 12:36:33;;;;;;;4.60;1.20;;;;;;;11.51;70.95;101086.65;107589;1255;113003;-61
2023/10/08 12:39:08;;;;;;;3.10;1.40;;;;;;;11.44;70.66;101090.61;107594;1251;109739;-61
2023/10/08 12:41:38;;;;;;;5.40;1.20;;;;;;;11.35;70.86;101091.48;107607;1251;107666;-60
2023/10/08 12:44:08;;;;;;;4.00;1.10;;;;;;;11.34;71.00;101087.63;107616;1254;99172;-60
2023/10/08 12:46:36;;;;;;;5.00;1.40;;;;;;;11.34;71.22;101092.41;107604;1251;99070;-61
2023/10/08 12:49:06;;;;;;;2.90;1.20;;;;;;;11.29;71.56;101093.18;107622;1251;112916;-62
2023/10/08 12:51:41;;;;;;;1.90;1.20;;;;;;;11.26;71.64;101100.12;107580;1251;107896;-59
2023/10/08 12:54:21;;;;;;;3.60;1.90;;;;;;;11.10;72.01;101104.56;107551;1254;106817;-61
2023/10/08 12:56:54;;;;;;;4.30;1.50;;;;;;;10.87;71.83;101093.74;107643;1251;99172;-60
2023/10/08 12:59:23;;;;;;;3.60;1.50;;;;;;;10.87;72.81;101082.98;107598;1251;99695;-62
2023/10/08 13:01:57;;;;;;;5.00;1.90;;;;;;;10.89;72.95;101088.21;107641;1251;113899;-60